sensor_id;sensor_type;location;lat;lon;timestamp;temperature;humidity
10492;DHT22;5293;51.464;-2.566;2023-03-23T00:02:30;9.90;99.90
10492;DHT22;5293;51.464;-2.566;2023-03-23T00:05:02;9.90;99.90
10492;DHT22;5293;51.464;-2.566;2023-03-23T00:07:29;9.80;99.90
10492;DHT22;5293;51.464;-2.566;2023-03-23T00:09:55;9.80;99.90
10492;DHT22;5293;51.464;-2.566;2023-03-23T00:12:31;9.70;99.90
10492;DHT22;5293;51.464;-2.566;2023-03-23T00:15:02;9.70;99.90
10492;DHT22;5293;51.464;-2.566;2023-03-23T00:17:29;9.70;99.90
10492;DHT22;5293;51.464;-2.566;2023-03-23T00:19:55;9.60;99.90
10492;DHT22;5293;51.464;-2.566;2023-03-23T00:22:21;9.60;99.90
10492;DHT22;5293;51.464;-2.566;2023-03-23T00:24:50;9.60;99.90
10492;DHT22;5293;51.464;-2.566;2023-03-23T00:27:17;9.60;99.90
10492;DHT22;5293;51.464;-2.566;2023-03-23T00:29:43;9.60;99.90
10492;DHT22;5293;51.464;-2.566;2023-03-23T00:32:12;9.60;99.90
10492;DHT22;5293;51.464;-2.566;2023-03-23T00:34:40;9.60;99.90
10492;DHT22;5293;51.464;-2.566;2023-03-23T00:37:08;9.60;99.90
10492;DHT22;5293;51.464;-2.566;2023-03-23T00:39:35;9.60;99.90
10492;DHT22;5293;51.464;-2.566;2023-03-23T00:42:03;9.60;99.90
10492;DHT22;5293;51.464;-2.566;2023-03-23T00:44:31;9.60;99.90
10492;DHT22;5293;51.464;-2.566;2023-03-23T00:46:57;9.60;99.90
10492;DHT22;5293;51.464;-2.566;2023-03-23T00:49:25;9.50;99.90
10492;DHT22;5293;51.464;-2.566;2023-03-23T00:51:53;9.50;99.90
10492;DHT22;5293;51.464;-2.566;2023-03-23T00:54:20;9.60;99.90
10492;DHT22;5293;51.464;-2.566;2023-03-23T00:56:46;9.50;99.90
10492;DHT22;5293;51.464;-2.566;2023-03-23T00:59:12;9.50;99.90
10492;DHT22;5293;51.464;-2.566;2023-03-23T01:01:38;9.60;99.90
10492;DHT22;5293;51.464;-2.566;2023-03-23T01:04:04;9.40;99.90
10492;DHT22;5293;51.464;-2.566;2023-03-23T01:06:35;9.40;99.90
10492;DHT22;5293;51.464;-2.566;2023-03-23T01:09:05;9.40;99.90
10492;DHT22;5293;51.464;-2.566;2023-03-23T01:11:32;9.40;99.90
10492;DHT22;5293;51.464;-2.566;2023-03-23T01:13:59;9.40;99.90
10492;DHT22;5293;51.464;-2.566;2023-03-23T01:16:26;9.40;99.90
10492;DHT22;5293;51.464;-2.566;2023-03-23T01:18:52;9.40;99.90
10492;DHT22;5293;51.464;-2.566;2023-03-23T01:21:19;9.40;99.90
10492;DHT22;5293;51.464;-2.566;2023-03-23T01:23:46;9.40;99.90
10492;DHT22;5293;51.464;-2.566;2023-03-23T01:26:15;9.30;99.90
10492;DHT22;5293;51.464;-2.566;2023-03-23T01:28:41;9.30;99.90
10492;DHT22;5293;51.464;-2.566;2023-03-23T01:31:12;9.30;99.90
10492;DHT22;5293;51.464;-2.566;2023-03-23T01:33:38;9.30;99.90
10492;DHT22;5293;51.464;-2.566;2023-03-23T01:36:12;9.30;99.90
10492;DHT22;5293;51.464;-2.566;2023-03-23T01:38:39;9.30;99.90
10492;DHT22;5293;51.464;-2.566;2023-03-23T01:41:05;9.20;99.90
10492;DHT22;5293;51.464;-2.566;2023-03-23T01:43:30;9.20;99.90
10492;DHT22;5293;51.464;-2.566;2023-03-23T01:45:57;9.20;99.90
10492;DHT22;5293;51.464;-2.566;2023-03-23T01:48:27;9.20;99.90
10492;DHT22;5293;51.464;-2.566;2023-03-23T01:53:58;9.10;99.90
10492;DHT22;5293;51.464;-2.566;2023-03-23T01:56:28;9.10;99.90
10492;DHT22;5293;51.464;-2.566;2023-03-23T01:58:58;9.00;99.90
10492;DHT22;5293;51.464;-2.566;2023-03-23T02:01:25;9.00;99.90
10492;DHT22;5293;51.464;-2.566;2023-03-23T02:03:52;8.90;99.90
10492;DHT22;5293;51.464;-2.566;2023-03-23T02:06:20;8.90;99.90
10492;DHT22;5293;51.464;-2.566;2023-03-23T02:08:48;8.80;99.90
10492;DHT22;5293;51.464;-2.566;2023-03-23T02:11:19;8.90;99.90
10492;DHT22;5293;51.464;-2.566;2023-03-23T02:13:46;8.90;99.90
10492;DHT22;5293;51.464;-2.566;2023-03-23T02:16:18;8.90;99.90
10492;DHT22;5293;51.464;-2.566;2023-03-23T02:19:12;8.80;99.90
10492;DHT22;5293;51.464;-2.566;2023-03-23T02:24:10;8.80;99.90
10492;DHT22;5293;51.464;-2.566;2023-03-23T02:26:54;8.80;99.90
10492;DHT22;5293;51.464;-2.566;2023-03-23T02:32:23;8.80;99.90
10492;DHT22;5293;51.464;-2.566;2023-03-23T02:35:10;8.80;99.90
10492;DHT22;5293;51.464;-2.566;2023-03-23T02:38:08;8.80;99.90
10492;DHT22;5293;51.464;-2.566;2023-03-23T02:40:49;8.80;99.90
10492;DHT22;5293;51.464;-2.566;2023-03-23T02:43:22;8.80;99.90
10492;DHT22;5293;51.464;-2.566;2023-03-23T02:45:48;8.70;99.90
10492;DHT22;5293;51.464;-2.566;2023-03-23T02:48:17;8.80;99.90
10492;DHT22;5293;51.464;-2.566;2023-03-23T02:50:47;8.80;99.90
10492;DHT22;5293;51.464;-2.566;2023-03-23T02:53:18;8.70;99.90
10492;DHT22;5293;51.464;-2.566;2023-03-23T02:55:45;8.80;99.90
10492;DHT22;5293;51.464;-2.566;2023-03-23T02:58:12;8.70;99.90
10492;DHT22;5293;51.464;-2.566;2023-03-23T03:00:38;8.70;99.90
10492;DHT22;5293;51.464;-2.566;2023-03-23T03:03:05;8.70;99.90
10492;DHT22;5293;51.464;-2.566;2023-03-23T03:19:11;8.70;99.90
10492;DHT22;5293;51.464;-2.566;2023-03-23T03:21:42;8.70;99.90
10492;DHT22;5293;51.464;-2.566;2023-03-23T03:24:11;8.60;99.90
10492;DHT22;5293;51.464;-2.566;2023-03-23T03:26:41;8.70;99.90
10492;DHT22;5293;51.464;-2.566;2023-03-23T03:29:11;8.60;99.90
10492;DHT22;5293;51.464;-2.566;2023-03-23T03:31:39;8.60;99.90
10492;DHT22;5293;51.464;-2.566;2023-03-23T03:34:06;8.60;99.90
10492;DHT22;5293;51.464;-2.566;2023-03-23T03:36:33;8.60;99.90
10492;DHT22;5293;51.464;-2.566;2023-03-23T03:39:04;8.60;99.90
10492;DHT22;5293;51.464;-2.566;2023-03-23T03:41:33;8.60;99.90
10492;DHT22;5293;51.464;-2.566;2023-03-23T03:43:59;8.70;99.90
10492;DHT22;5293;51.464;-2.566;2023-03-23T03:46:25;8.60;99.90
10492;DHT22;5293;51.464;-2.566;2023-03-23T03:48:55;8.70;99.90
10492;DHT22;5293;51.464;-2.566;2023-03-23T03:51:22;8.70;99.90
10492;DHT22;5293;51.464;-2.566;2023-03-23T03:53:48;8.70;99.90
10492;DHT22;5293;51.464;-2.566;2023-03-23T03:56:13;8.70;99.90
10492;DHT22;5293;51.464;-2.566;2023-03-23T03:58:39;8.70;99.90
10492;DHT22;5293;51.464;-2.566;2023-03-23T04:01:09;8.70;99.90
10492;DHT22;5293;51.464;-2.566;2023-03-23T04:03:39;8.60;99.90
10492;DHT22;5293;51.464;-2.566;2023-03-23T04:06:05;8.60;99.90
10492;DHT22;5293;51.464;-2.566;2023-03-23T04:08:31;8.70;99.90
10492;DHT22;5293;51.464;-2.566;2023-03-23T04:10:57;8.70;99.90
10492;DHT22;5293;51.464;-2.566;2023-03-23T04:13:23;8.70;99.90
10492;DHT22;5293;51.464;-2.566;2023-03-23T04:15:49;8.70;99.90
10492;DHT22;5293;51.464;-2.566;2023-03-23T04:18:16;8.60;99.90
10492;DHT22;5293;51.464;-2.566;2023-03-23T04:20:44;8.60;99.90
10492;DHT22;5293;51.464;-2.566;2023-03-23T04:23:13;8.70;99.90
10492;DHT22;5293;51.464;-2.566;2023-03-23T04:25:38;8.70;99.90
10492;DHT22;5293;51.464;-2.566;2023-03-23T04:28:07;8.70;99.90
10492;DHT22;5293;51.464;-2.566;2023-03-23T04:30:35;8.70;99.90
10492;DHT22;5293;51.464;-2.566;2023-03-23T04:33:02;8.70;99.90
10492;DHT22;5293;51.464;-2.566;2023-03-23T04:35:29;8.70;99.90
10492;DHT22;5293;51.464;-2.566;2023-03-23T04:37:55;8.70;99.90
10492;DHT22;5293;51.464;-2.566;2023-03-23T04:40:22;8.60;99.90
10492;DHT22;5293;51.464;-2.566;2023-03-23T04:42:48;8.60;99.90
10492;DHT22;5293;51.464;-2.566;2023-03-23T04:45:19;8.60;99.90
10492;DHT22;5293;51.464;-2.566;2023-03-23T04:47:49;8.60;99.90
10492;DHT22;5293;51.464;-2.566;2023-03-23T04:50:24;8.60;99.90
10492;DHT22;5293;51.464;-2.566;2023-03-23T04:52:52;8.60;99.90
10492;DHT22;5293;51.464;-2.566;2023-03-23T04:55:20;8.60;99.90
10492;DHT22;5293;51.464;-2.566;2023-03-23T04:57:46;8.60;99.90
10492;DHT22;5293;51.464;-2.566;2023-03-23T05:00:13;8.50;99.90
10492;DHT22;5293;51.464;-2.566;2023-03-23T05:02:42;8.60;99.90
10492;DHT22;5293;51.464;-2.566;2023-03-23T05:05:09;8.50;99.90
10492;DHT22;5293;51.464;-2.566;2023-03-23T05:07:37;8.50;99.90
10492;DHT22;5293;51.464;-2.566;2023-03-23T05:10:04;8.50;99.90
10492;DHT22;5293;51.464;-2.566;2023-03-23T05:12:30;8.50;99.90
10492;DHT22;5293;51.464;-2.566;2023-03-23T05:14:57;8.50;99.90
10492;DHT22;5293;51.464;-2.566;2023-03-23T05:17:23;8.50;99.90
10492;DHT22;5293;51.464;-2.566;2023-03-23T05:19:52;8.50;99.90
10492;DHT22;5293;51.464;-2.566;2023-03-23T05:22:19;8.50;99.90
10492;DHT22;5293;51.464;-2.566;2023-03-23T05:24:47;8.50;99.90
10492;DHT22;5293;51.464;-2.566;2023-03-23T05:27:13;8.50;99.90
10492;DHT22;5293;51.464;-2.566;2023-03-23T05:29:40;8.50;99.90
10492;DHT22;5293;51.464;-2.566;2023-03-23T05:32:09;8.50;99.90
10492;DHT22;5293;51.464;-2.566;2023-03-23T05:34:36;8.50;99.90
10492;DHT22;5293;51.464;-2.566;2023-03-23T05:37:03;8.60;99.90
10492;DHT22;5293;51.464;-2.566;2023-03-23T05:39:30;8.60;99.90
10492;DHT22;5293;51.464;-2.566;2023-03-23T05:41:56;8.60;99.90
10492;DHT22;5293;51.464;-2.566;2023-03-23T05:44:22;8.60;99.90
10492;DHT22;5293;51.464;-2.566;2023-03-23T05:46:48;8.60;99.90
10492;DHT22;5293;51.464;-2.566;2023-03-23T05:49:15;8.60;99.90
10492;DHT22;5293;51.464;-2.566;2023-03-23T05:51:45;8.50;99.90
10492;DHT22;5293;51.464;-2.566;2023-03-23T05:54:15;8.50;99.90
10492;DHT22;5293;51.464;-2.566;2023-03-23T05:56:42;8.60;99.90
10492;DHT22;5293;51.464;-2.566;2023-03-23T05:59:08;8.60;99.90
10492;DHT22;5293;51.464;-2.566;2023-03-23T06:01:35;8.70;99.90
10492;DHT22;5293;51.464;-2.566;2023-03-23T06:04:01;8.70;99.90
10492;DHT22;5293;51.464;-2.566;2023-03-23T06:06:28;8.80;99.90
10492;DHT22;5293;51.464;-2.566;2023-03-23T06:08:55;8.90;99.90
10492;DHT22;5293;51.464;-2.566;2023-03-23T06:11:21;8.90;99.90
10492;DHT22;5293;51.464;-2.566;2023-03-23T06:13:46;8.90;99.90
10492;DHT22;5293;51.464;-2.566;2023-03-23T06:16:13;8.90;99.90
10492;DHT22;5293;51.464;-2.566;2023-03-23T06:18:38;8.90;99.90
10492;DHT22;5293;51.464;-2.566;2023-03-23T06:21:06;9.00;99.90
10492;DHT22;5293;51.464;-2.566;2023-03-23T06:23:32;9.00;99.90
10492;DHT22;5293;51.464;-2.566;2023-03-23T06:26:00;9.10;99.90
10492;DHT22;5293;51.464;-2.566;2023-03-23T06:28:28;9.10;99.90
10492;DHT22;5293;51.464;-2.566;2023-03-23T06:30:54;9.20;99.90
10492;DHT22;5293;51.464;-2.566;2023-03-23T06:33:20;9.20;99.90
10492;DHT22;5293;51.464;-2.566;2023-03-23T06:35:46;9.20;99.90
10492;DHT22;5293;51.464;-2.566;2023-03-23T06:38:13;9.30;99.90
10492;DHT22;5293;51.464;-2.566;2023-03-23T06:40:39;9.30;99.90
10492;DHT22;5293;51.464;-2.566;2023-03-23T06:43:05;9.30;99.90
10492;DHT22;5293;51.464;-2.566;2023-03-23T06:45:31;9.40;99.90
10492;DHT22;5293;51.464;-2.566;2023-03-23T06:47:57;9.40;99.90
10492;DHT22;5293;51.464;-2.566;2023-03-23T06:50:22;9.50;99.90
10492;DHT22;5293;51.464;-2.566;2023-03-23T06:52:50;9.50;99.90
10492;DHT22;5293;51.464;-2.566;2023-03-23T06:55:16;9.50;99.90
10492;DHT22;5293;51.464;-2.566;2023-03-23T06:57:43;9.50;99.90
10492;DHT22;5293;51.464;-2.566;2023-03-23T07:00:12;9.60;99.90
10492;DHT22;5293;51.464;-2.566;2023-03-23T07:02:39;9.70;99.90
10492;DHT22;5293;51.464;-2.566;2023-03-23T07:05:07;9.70;99.90
10492;DHT22;5293;51.464;-2.566;2023-03-23T07:07:32;9.70;99.90
10492;DHT22;5293;51.464;-2.566;2023-03-23T07:09:58;9.80;99.90
10492;DHT22;5293;51.464;-2.566;2023-03-23T07:12:24;9.90;99.90
10492;DHT22;5293;51.464;-2.566;2023-03-23T07:14:50;10.00;99.90
10492;DHT22;5293;51.464;-2.566;2023-03-23T07:17:16;10.10;99.90
10492;DHT22;5293;51.464;-2.566;2023-03-23T07:19:42;10.20;99.90
10492;DHT22;5293;51.464;-2.566;2023-03-23T07:22:07;10.20;99.90
10492;DHT22;5293;51.464;-2.566;2023-03-23T07:24:34;10.30;99.90
10492;DHT22;5293;51.464;-2.566;2023-03-23T07:27:00;10.40;99.90
10492;DHT22;5293;51.464;-2.566;2023-03-23T07:29:26;10.40;99.90
10492;DHT22;5293;51.464;-2.566;2023-03-23T07:31:53;10.50;99.90
10492;DHT22;5293;51.464;-2.566;2023-03-23T07:34:19;10.50;99.90
10492;DHT22;5293;51.464;-2.566;2023-03-23T07:36:45;10.60;99.90
10492;DHT22;5293;51.464;-2.566;2023-03-23T07:39:12;10.60;99.90
10492;DHT22;5293;51.464;-2.566;2023-03-23T07:41:38;10.60;99.90
10492;DHT22;5293;51.464;-2.566;2023-03-23T07:44:05;10.70;99.90
10492;DHT22;5293;51.464;-2.566;2023-03-23T07:46:32;10.80;99.90
10492;DHT22;5293;51.464;-2.566;2023-03-23T07:48:58;10.90;99.90
10492;DHT22;5293;51.464;-2.566;2023-03-23T07:51:23;11.00;99.90
10492;DHT22;5293;51.464;-2.566;2023-03-23T07:53:50;11.00;99.90
10492;DHT22;5293;51.464;-2.566;2023-03-23T07:56:17;11.00;99.90
10492;DHT22;5293;51.464;-2.566;2023-03-23T07:58:45;11.10;99.90
10492;DHT22;5293;51.464;-2.566;2023-03-23T08:01:11;11.20;99.90
10492;DHT22;5293;51.464;-2.566;2023-03-23T08:03:38;11.30;99.90
10492;DHT22;5293;51.464;-2.566;2023-03-23T08:06:04;11.30;99.90
10492;DHT22;5293;51.464;-2.566;2023-03-23T08:08:31;11.40;99.90
10492;DHT22;5293;51.464;-2.566;2023-03-23T08:10:58;11.30;99.90
10492;DHT22;5293;51.464;-2.566;2023-03-23T08:13:24;11.30;99.90
10492;DHT22;5293;51.464;-2.566;2023-03-23T08:15:50;11.40;99.90
10492;DHT22;5293;51.464;-2.566;2023-03-23T08:18:16;11.40;99.90
10492;DHT22;5293;51.464;-2.566;2023-03-23T08:20:43;11.60;99.90
10492;DHT22;5293;51.464;-2.566;2023-03-23T08:23:10;11.50;99.90
10492;DHT22;5293;51.464;-2.566;2023-03-23T08:25:36;11.60;99.90
10492;DHT22;5293;51.464;-2.566;2023-03-23T08:28:03;11.60;99.90
10492;DHT22;5293;51.464;-2.566;2023-03-23T08:30:29;11.80;99.90
10492;DHT22;5293;51.464;-2.566;2023-03-23T08:32:57;11.90;99.90
10492;DHT22;5293;51.464;-2.566;2023-03-23T08:35:23;11.90;99.90
10492;DHT22;5293;51.464;-2.566;2023-03-23T08:37:50;12.00;99.90
10492;DHT22;5293;51.464;-2.566;2023-03-23T08:40:17;12.10;99.90
10492;DHT22;5293;51.464;-2.566;2023-03-23T08:42:45;12.30;99.90
10492;DHT22;5293;51.464;-2.566;2023-03-23T08:45:14;12.40;99.90
10492;DHT22;5293;51.464;-2.566;2023-03-23T08:47:41;12.60;99.90
10492;DHT22;5293;51.464;-2.566;2023-03-23T08:50:09;12.80;99.90
10492;DHT22;5293;51.464;-2.566;2023-03-23T08:52:36;12.80;99.90
10492;DHT22;5293;51.464;-2.566;2023-03-23T08:55:03;12.90;99.90
10492;DHT22;5293;51.464;-2.566;2023-03-23T08:57:29;12.80;99.90
10492;DHT22;5293;51.464;-2.566;2023-03-23T08:59:54;12.70;99.90
10492;DHT22;5293;51.464;-2.566;2023-03-23T09:02:26;12.60;99.90
10492;DHT22;5293;51.464;-2.566;2023-03-23T09:04:53;12.50;99.90
10492;DHT22;5293;51.464;-2.566;2023-03-23T09:07:19;12.40;99.90
10492;DHT22;5293;51.464;-2.566;2023-03-23T09:09:45;12.40;99.90
10492;DHT22;5293;51.464;-2.566;2023-03-23T09:12:11;12.30;99.90
10492;DHT22;5293;51.464;-2.566;2023-03-23T09:14:38;12.30;99.90
10492;DHT22;5293;51.464;-2.566;2023-03-23T09:17:04;12.20;99.90
10492;DHT22;5293;51.464;-2.566;2023-03-23T09:19:32;12.20;99.90
10492;DHT22;5293;51.464;-2.566;2023-03-23T09:21:59;12.40;99.90
10492;DHT22;5293;51.464;-2.566;2023-03-23T09:24:26;12.50;99.90
10492;DHT22;5293;51.464;-2.566;2023-03-23T09:26:52;12.60;99.90
10492;DHT22;5293;51.464;-2.566;2023-03-23T09:29:18;12.80;99.90
10492;DHT22;5293;51.464;-2.566;2023-03-23T09:31:44;13.00;99.90
10492;DHT22;5293;51.464;-2.566;2023-03-23T09:34:12;13.10;99.90
10492;DHT22;5293;51.464;-2.566;2023-03-23T09:36:39;13.20;99.90
10492;DHT22;5293;51.464;-2.566;2023-03-23T09:39:05;13.30;99.90
10492;DHT22;5293;51.464;-2.566;2023-03-23T09:44:24;13.50;99.90
10492;DHT22;5293;51.464;-2.566;2023-03-23T09:46:59;13.50;99.90
10492;DHT22;5293;51.464;-2.566;2023-03-23T09:49:32;13.40;99.90
10492;DHT22;5293;51.464;-2.566;2023-03-23T09:52:11;13.30;99.90
10492;DHT22;5293;51.464;-2.566;2023-03-23T09:54:49;13.40;99.90
10492;DHT22;5293;51.464;-2.566;2023-03-23T10:00:37;13.40;99.90
10492;DHT22;5293;51.464;-2.566;2023-03-23T10:03:17;13.40;99.90
10492;DHT22;5293;51.464;-2.566;2023-03-23T10:05:48;13.40;99.90
10492;DHT22;5293;51.464;-2.566;2023-03-23T10:08:20;13.40;99.90
10492;DHT22;5293;51.464;-2.566;2023-03-23T10:16:36;13.90;99.90
10492;DHT22;5293;51.464;-2.566;2023-03-23T10:19:20;13.70;99.90
10492;DHT22;5293;51.464;-2.566;2023-03-23T10:21:52;13.60;99.90
10492;DHT22;5293;51.464;-2.566;2023-03-23T10:24:22;13.70;99.90
10492;DHT22;5293;51.464;-2.566;2023-03-23T10:27:10;13.70;99.90
10492;DHT22;5293;51.464;-2.566;2023-03-23T10:29:49;14.00;99.90
10492;DHT22;5293;51.464;-2.566;2023-03-23T10:32:21;14.20;99.90
10492;DHT22;5293;51.464;-2.566;2023-03-23T10:34:56;14.30;99.90
10492;DHT22;5293;51.464;-2.566;2023-03-23T10:37:32;14.30;99.90
10492;DHT22;5293;51.464;-2.566;2023-03-23T10:40:03;14.30;99.90
10492;DHT22;5293;51.464;-2.566;2023-03-23T10:42:36;14.30;99.90
10492;DHT22;5293;51.464;-2.566;2023-03-23T10:45:30;14.20;99.90
10492;DHT22;5293;51.464;-2.566;2023-03-23T10:48:28;14.10;99.90
10492;DHT22;5293;51.464;-2.566;2023-03-23T10:50:59;14.10;99.90
10492;DHT22;5293;51.464;-2.566;2023-03-23T10:53:35;14.10;99.90
10492;DHT22;5293;51.464;-2.566;2023-03-23T10:56:03;14.20;99.90
10492;DHT22;5293;51.464;-2.566;2023-03-23T10:58:32;14.30;99.90
10492;DHT22;5293;51.464;-2.566;2023-03-23T11:01:00;14.40;99.90
10492;DHT22;5293;51.464;-2.566;2023-03-23T11:03:43;14.30;99.90
10492;DHT22;5293;51.464;-2.566;2023-03-23T11:06:12;14.20;99.90
10492;DHT22;5293;51.464;-2.566;2023-03-23T11:09:00;14.20;99.90
10492;DHT22;5293;51.464;-2.566;2023-03-23T11:11:29;14.30;99.90
10492;DHT22;5293;51.464;-2.566;2023-03-23T11:14:02;14.50;99.90
10492;DHT22;5293;51.464;-2.566;2023-03-23T11:16:30;14.80;99.90
10492;DHT22;5293;51.464;-2.566;2023-03-23T11:18:58;14.90;99.90
10492;DHT22;5293;51.464;-2.566;2023-03-23T11:21:25;15.10;99.90
10492;DHT22;5293;51.464;-2.566;2023-03-23T11:24:01;15.10;99.90
10492;DHT22;5293;51.464;-2.566;2023-03-23T11:26:31;15.20;99.90
10492;DHT22;5293;51.464;-2.566;2023-03-23T11:29:09;15.20;99.90
10492;DHT22;5293;51.464;-2.566;2023-03-23T11:31:41;15.10;99.90
10492;DHT22;5293;51.464;-2.566;2023-03-23T11:36:43;15.00;99.90
10492;DHT22;5293;51.464;-2.566;2023-03-23T11:39:27;15.10;99.90
10492;DHT22;5293;51.464;-2.566;2023-03-23T11:41:54;15.10;99.90
10492;DHT22;5293;51.464;-2.566;2023-03-23T11:44:22;15.10;99.90
10492;DHT22;5293;51.464;-2.566;2023-03-23T11:47:05;15.10;99.90
10492;DHT22;5293;51.464;-2.566;2023-03-23T11:49:42;15.30;99.90
10492;DHT22;5293;51.464;-2.566;2023-03-23T11:52:16;15.40;99.90
10492;DHT22;5293;51.464;-2.566;2023-03-23T11:54:50;15.40;99.90
10492;DHT22;5293;51.464;-2.566;2023-03-23T11:57:17;15.60;99.90
10492;DHT22;5293;51.464;-2.566;2023-03-23T11:59:43;15.60;99.90
10492;DHT22;5293;51.464;-2.566;2023-03-23T12:04:52;15.60;99.90
10492;DHT22;5293;51.464;-2.566;2023-03-23T12:07:47;15.60;99.90
10492;DHT22;5293;51.464;-2.566;2023-03-23T12:10:19;15.60;99.90
10492;DHT22;5293;51.464;-2.566;2023-03-23T12:13:19;15.50;99.90
10492;DHT22;5293;51.464;-2.566;2023-03-23T12:21:25;15.00;99.90
10492;DHT22;5293;51.464;-2.566;2023-03-23T12:24:11;15.00;99.90
10492;DHT22;5293;51.464;-2.566;2023-03-23T12:34:45;15.50;99.90
10492;DHT22;5293;51.464;-2.566;2023-03-23T12:40:00;15.50;99.90
10492;DHT22;5293;51.464;-2.566;2023-03-23T12:43:13;15.60;99.90
10492;DHT22;5293;51.464;-2.566;2023-03-23T12:45:46;15.60;99.90
10492;DHT22;5293;51.464;-2.566;2023-03-23T12:48:25;15.70;99.90
10492;DHT22;5293;51.464;-2.566;2023-03-23T12:54:12;15.60;99.90
10492;DHT22;5293;51.464;-2.566;2023-03-23T12:56:31;15.70;99.90
10492;DHT22;5293;51.464;-2.566;2023-03-23T13:02:21;15.20;99.90
10492;DHT22;5293;51.464;-2.566;2023-03-23T13:04:56;15.00;99.90
10492;DHT22;5293;51.464;-2.566;2023-03-23T13:07:28;14.90;99.90
10492;DHT22;5293;51.464;-2.566;2023-03-23T13:10:09;14.80;99.90
10492;DHT22;5293;51.464;-2.566;2023-03-23T13:12:40;14.70;99.90
10492;DHT22;5293;51.464;-2.566;2023-03-23T13:20:57;14.80;99.90
10492;DHT22;5293;51.464;-2.566;2023-03-23T13:23:44;14.70;99.90
10492;DHT22;5293;51.464;-2.566;2023-03-23T13:26:21;14.70;99.90
10492;DHT22;5293;51.464;-2.566;2023-03-23T13:31:31;14.70;99.90
10492;DHT22;5293;51.464;-2.566;2023-03-23T13:34:22;14.70;99.90
10492;DHT22;5293;51.464;-2.566;2023-03-23T13:37:11;14.80;99.90
10492;DHT22;5293;51.464;-2.566;2023-03-23T13:39:51;14.80;99.90
10492;DHT22;5293;51.464;-2.566;2023-03-23T13:42:23;14.90;99.90
10492;DHT22;5293;51.464;-2.566;2023-03-23T13:49:53;14.80;99.90
10492;DHT22;5293;51.464;-2.566;2023-03-23T13:52:36;14.90;99.90
10492;DHT22;5293;51.464;-2.566;2023-03-23T13:55:20;14.70;99.90
10492;DHT22;5293;51.464;-2.566;2023-03-23T14:11:01;13.30;99.90
10492;DHT22;5293;51.464;-2.566;2023-03-23T14:13:40;13.10;99.90
10492;DHT22;5293;51.464;-2.566;2023-03-23T14:16:17;13.10;99.90
10492;DHT22;5293;51.464;-2.566;2023-03-23T14:18:51;12.90;99.90
10492;DHT22;5293;51.464;-2.566;2023-03-23T14:21:39;12.90;99.90
10492;DHT22;5293;51.464;-2.566;2023-03-23T14:24:15;12.90;99.90
10492;DHT22;5293;51.464;-2.566;2023-03-23T14:26:42;12.80;99.90
10492;DHT22;5293;51.464;-2.566;2023-03-23T14:29:11;12.80;99.90
10492;DHT22;5293;51.464;-2.566;2023-03-23T14:31:37;12.80;99.90
10492;DHT22;5293;51.464;-2.566;2023-03-23T14:34:12;12.70;99.90
10492;DHT22;5293;51.464;-2.566;2023-03-23T14:36:38;12.60;99.90
10492;DHT22;5293;51.464;-2.566;2023-03-23T14:39:28;12.30;99.90
10492;DHT22;5293;51.464;-2.566;2023-03-23T14:42:05;12.30;99.90
10492;DHT22;5293;51.464;-2.566;2023-03-23T14:44:35;12.30;99.90
10492;DHT22;5293;51.464;-2.566;2023-03-23T14:47:04;12.20;99.90
10492;DHT22;5293;51.464;-2.566;2023-03-23T14:49:35;12.20;99.90
10492;DHT22;5293;51.464;-2.566;2023-03-23T14:52:15;12.00;99.90
10492;DHT22;5293;51.464;-2.566;2023-03-23T14:54:42;12.00;99.90
10492;DHT22;5293;51.464;-2.566;2023-03-23T14:57:27;11.80;99.90
10492;DHT22;5293;51.464;-2.566;2023-03-23T14:59:53;11.90;99.90
10492;DHT22;5293;51.464;-2.566;2023-03-23T15:02:30;11.90;99.90
10492;DHT22;5293;51.464;-2.566;2023-03-23T15:05:00;11.90;99.90
10492;DHT22;5293;51.464;-2.566;2023-03-23T15:07:32;11.90;99.90
10492;DHT22;5293;51.464;-2.566;2023-03-23T15:09:59;11.90;99.90
10492;DHT22;5293;51.464;-2.566;2023-03-23T15:12:29;11.90;99.90
10492;DHT22;5293;51.464;-2.566;2023-03-23T15:15:07;11.80;99.90
10492;DHT22;5293;51.464;-2.566;2023-03-23T15:17:46;11.70;99.90
10492;DHT22;5293;51.464;-2.566;2023-03-23T15:20:23;11.70;99.90
10492;DHT22;5293;51.464;-2.566;2023-03-23T15:22:50;11.70;99.90
10492;DHT22;5293;51.464;-2.566;2023-03-23T15:25:23;11.80;99.90
10492;DHT22;5293;51.464;-2.566;2023-03-23T15:28:06;11.80;99.90
10492;DHT22;5293;51.464;-2.566;2023-03-23T15:30:35;11.70;99.90
10492;DHT22;5293;51.464;-2.566;2023-03-23T15:33:08;11.70;99.90
10492;DHT22;5293;51.464;-2.566;2023-03-23T15:35:37;11.70;99.90
10492;DHT22;5293;51.464;-2.566;2023-03-23T15:38:06;11.80;99.90
10492;DHT22;5293;51.464;-2.566;2023-03-23T15:40:37;11.70;99.90
10492;DHT22;5293;51.464;-2.566;2023-03-23T15:43:24;11.70;99.90
10492;DHT22;5293;51.464;-2.566;2023-03-23T15:48:22;11.80;99.90
10492;DHT22;5293;51.464;-2.566;2023-03-23T15:50:49;11.90;99.90
10492;DHT22;5293;51.464;-2.566;2023-03-23T15:55:53;11.90;99.90
10492;DHT22;5293;51.464;-2.566;2023-03-23T15:58:19;11.90;99.90
10492;DHT22;5293;51.464;-2.566;2023-03-23T16:00:45;11.90;99.90
10492;DHT22;5293;51.464;-2.566;2023-03-23T16:03:19;11.80;99.90
10492;DHT22;5293;51.464;-2.566;2023-03-23T16:05:46;11.80;99.90
10492;DHT22;5293;51.464;-2.566;2023-03-23T16:08:12;11.90;99.90
10492;DHT22;5293;51.464;-2.566;2023-03-23T16:10:39;11.90;99.90
10492;DHT22;5293;51.464;-2.566;2023-03-23T16:13:04;12.00;99.90
10492;DHT22;5293;51.464;-2.566;2023-03-23T16:15:31;12.00;99.90
10492;DHT22;5293;51.464;-2.566;2023-03-23T16:17:57;12.20;99.90
10492;DHT22;5293;51.464;-2.566;2023-03-23T16:20:23;12.20;99.90
10492;DHT22;5293;51.464;-2.566;2023-03-23T16:22:50;12.30;99.90
10492;DHT22;5293;51.464;-2.566;2023-03-23T16:25:16;12.20;99.90
10492;DHT22;5293;51.464;-2.566;2023-03-23T16:27:43;12.20;99.90
10492;DHT22;5293;51.464;-2.566;2023-03-23T16:30:23;12.20;99.90
10492;DHT22;5293;51.464;-2.566;2023-03-23T16:32:50;12.20;99.90
10492;DHT22;5293;51.464;-2.566;2023-03-23T16:35:15;12.10;99.90
10492;DHT22;5293;51.464;-2.566;2023-03-23T16:37:46;12.10;99.90
10492;DHT22;5293;51.464;-2.566;2023-03-23T16:40:13;12.10;99.90
10492;DHT22;5293;51.464;-2.566;2023-03-23T16:42:39;12.00;99.90
10492;DHT22;5293;51.464;-2.566;2023-03-23T16:45:05;12.00;99.90
10492;DHT22;5293;51.464;-2.566;2023-03-23T16:47:31;12.00;99.90
10492;DHT22;5293;51.464;-2.566;2023-03-23T16:49:57;11.90;99.90
10492;DHT22;5293;51.464;-2.566;2023-03-23T16:52:23;11.90;99.90
10492;DHT22;5293;51.464;-2.566;2023-03-23T16:54:48;11.90;99.90
10492;DHT22;5293;51.464;-2.566;2023-03-23T16:57:14;11.90;99.90
10492;DHT22;5293;51.464;-2.566;2023-03-23T16:59:41;11.80;99.90
10492;DHT22;5293;51.464;-2.566;2023-03-23T17:02:09;11.60;99.90
10492;DHT22;5293;51.464;-2.566;2023-03-23T17:04:35;11.50;99.90
10492;DHT22;5293;51.464;-2.566;2023-03-23T17:07:02;11.40;99.90
10492;DHT22;5293;51.464;-2.566;2023-03-23T17:09:28;11.30;99.90
10492;DHT22;5293;51.464;-2.566;2023-03-23T17:11:54;11.20;99.90
10492;DHT22;5293;51.464;-2.566;2023-03-23T17:14:20;11.00;99.90
10492;DHT22;5293;51.464;-2.566;2023-03-23T17:16:46;10.90;99.90
10492;DHT22;5293;51.464;-2.566;2023-03-23T17:19:12;10.80;99.90
10492;DHT22;5293;51.464;-2.566;2023-03-23T17:21:41;10.80;99.90
10492;DHT22;5293;51.464;-2.566;2023-03-23T17:24:07;10.80;99.90
10492;DHT22;5293;51.464;-2.566;2023-03-23T17:26:33;10.80;99.90
10492;DHT22;5293;51.464;-2.566;2023-03-23T17:28:59;10.80;99.90